sensor_id;sensor_type;location;lat;lon;timestamp;P1;durP1;ratioP1;P2;durP2;ratioP2
16792;SDS011;8513;42.662;23.350;2022-08-01T00:00:33;3.10;;;2.10;;
16792;SDS011;8513;42.662;23.350;2022-08-01T00:02:59;2.25;;;2.05;;
16792;SDS011;8513;42.662;23.350;2022-08-01T00:05:24;2.80;;;2.00;;
16792;SDS011;8513;42.662;23.350;2022-08-01T00:07:50;3.13;;;2.15;;
16792;SDS011;8513;42.662;23.350;2022-08-01T00:10:16;2.38;;;2.10;;
16792;SDS011;8513;42.662;23.350;2022-08-01T00:12:42;2.25;;;2.08;;
16792;SDS011;8513;42.662;23.350;2022-08-01T00:15:09;4.60;;;2.38;;
16792;SDS011;8513;42.662;23.350;2022-08-01T00:17:36;2.35;;;2.03;;
16792;SDS011;8513;42.662;23.350;2022-08-01T00:20:03;5.13;;;2.08;;
16792;SDS011;8513;42.662;23.350;2022-08-01T00:22:31;5.90;;;2.13;;
16792;SDS011;8513;42.662;23.350;2022-08-01T00:24:57;2.63;;;2.10;;
16792;SDS011;8513;42.662;23.350;2022-08-01T00:27:23;2.75;;;1.92;;
16792;SDS011;8513;42.662;23.350;2022-08-01T00:29:48;1.92;;;1.83;;
16792;SDS011;8513;42.662;23.350;2022-08-01T00:32:13;4.45;;;2.03;;
16792;SDS011;8513;42.662;23.350;2022-08-01T00:34:39;2.15;;;1.95;;
16792;SDS011;8513;42.662;23.350;2022-08-01T00:37:04;2.20;;;2.00;;
16792;SDS011;8513;42.662;23.350;2022-08-01T00:39:30;2.75;;;2.55;;
16792;SDS011;8513;42.662;23.350;2022-08-01T00:41:57;4.15;;;3.83;;
16792;SDS011;8513;42.662;23.350;2022-08-01T00:44:23;4.10;;;3.65;;
16792;SDS011;8513;42.662;23.350;2022-08-01T00:46:48;4.35;;;4.03;;
16792;SDS011;8513;42.662;23.350;2022-08-01T00:49:13;3.63;;;3.33;;
16792;SDS011;8513;42.662;23.350;2022-08-01T00:51:39;4.20;;;3.67;;
16792;SDS011;8513;42.662;23.350;2022-08-01T00:54:04;4.47;;;4.07;;
16792;SDS011;8513;42.662;23.350;2022-08-01T00:56:30;4.68;;;4.28;;
16792;SDS011;8513;42.662;23.350;2022-08-01T00:58:56;4.25;;;3.92;;
16792;SDS011;8513;42.662;23.350;2022-08-01T01:01:22;4.47;;;4.10;;
16792;SDS011;8513;42.662;23.350;2022-08-01T01:03:50;4.43;;;4.10;;
16792;SDS011;8513;42.662;23.350;2022-08-01T01:08:58;4.53;;;4.07;;
16792;SDS011;8513;42.662;23.350;2022-08-01T01:11:35;4.90;;;4.15;;
16792;SDS011;8513;42.662;23.350;2022-08-01T01:14:10;4.72;;;4.00;;
16792;SDS011;8513;42.662;23.350;2022-08-01T01:16:46;4.60;;;4.00;;
16792;SDS011;8513;42.662;23.350;2022-08-01T01:19:13;4.47;;;4.18;;
16792;SDS011;8513;42.662;23.350;2022-08-01T01:30:16;4.72;;;3.90;;
16792;SDS011;8513;42.662;23.350;2022-08-01T01:32:43;4.03;;;3.45;;
16792;SDS011;8513;42.662;23.350;2022-08-01T01:35:19;4.30;;;3.15;;
16792;SDS011;8513;42.662;23.350;2022-08-01T01:37:49;4.50;;;3.10;;
16792;SDS011;8513;42.662;23.350;2022-08-01T01:40:20;3.63;;;3.33;;
16792;SDS011;8513;42.662;23.350;2022-08-01T01:42:48;3.08;;;2.80;;
16792;SDS011;8513;42.662;23.350;2022-08-01T01:45:16;3.15;;;2.83;;
16792;SDS011;8513;42.662;23.350;2022-08-01T01:47:43;3.47;;;2.60;;
16792;SDS011;8513;42.662;23.350;2022-08-01T01:50:10;3.58;;;2.60;;
16792;SDS011;8513;42.662;23.350;2022-08-01T01:52:37;2.40;;;2.20;;
16792;SDS011;8513;42.662;23.350;2022-08-01T01:55:05;3.55;;;2.90;;
16792;SDS011;8513;42.662;23.350;2022-08-01T01:57:35;2.47;;;2.10;;
16792;SDS011;8513;42.662;23.350;2022-08-01T02:00:04;2.38;;;2.15;;
16792;SDS011;8513;42.662;23.350;2022-08-01T02:02:32;2.17;;;1.95;;
16792;SDS011;8513;42.662;23.350;2022-08-01T02:04:59;4.90;;;1.83;;
16792;SDS011;8513;42.662;23.350;2022-08-01T02:07:25;2.28;;;1.85;;
16792;SDS011;8513;42.662;23.350;2022-08-01T02:09:52;2.20;;;2.00;;
16792;SDS011;8513;42.662;23.350;2022-08-01T02:12:20;1.90;;;1.60;;
16792;SDS011;8513;42.662;23.350;2022-08-01T02:14:46;2.45;;;1.67;;
16792;SDS011;8513;42.662;23.350;2022-08-01T02:17:15;3.03;;;1.75;;
16792;SDS011;8513;42.662;23.350;2022-08-01T02:19:42;2.20;;;1.80;;
16792;SDS011;8513;42.662;23.350;2022-08-01T02:22:09;3.85;;;2.00;;
16792;SDS011;8513;42.662;23.350;2022-08-01T02:24:45;3.20;;;1.70;;
16792;SDS011;8513;42.662;23.350;2022-08-01T02:27:28;3.65;;;1.80;;
16792;SDS011;8513;42.662;23.350;2022-08-01T02:30:03;2.65;;;1.80;;
16792;SDS011;8513;42.662;23.350;2022-08-01T02:32:32;1.75;;;1.65;;
16792;SDS011;8513;42.662;23.350;2022-08-01T02:35:02;3.42;;;1.73;;
16792;SDS011;8513;42.662;23.350;2022-08-01T02:37:33;1.77;;;1.65;;
16792;SDS011;8513;42.662;23.350;2022-08-01T02:40:01;1.98;;;1.77;;
16792;SDS011;8513;42.662;23.350;2022-08-01T02:42:30;3.97;;;2.08;;
16792;SDS011;8513;42.662;23.350;2022-08-01T02:44:57;1.73;;;1.63;;
16792;SDS011;8513;42.662;23.350;2022-08-01T02:47:23;3.85;;;2.50;;
16792;SDS011;8513;42.662;23.350;2022-08-01T02:49:52;2.40;;;2.22;;
16792;SDS011;8513;42.662;23.350;2022-08-01T02:52:20;3.65;;;2.80;;
16792;SDS011;8513;42.662;23.350;2022-08-01T02:54:50;2.83;;;2.58;;
16792;SDS011;8513;42.662;23.350;2022-08-01T02:57:18;3.63;;;2.40;;
16792;SDS011;8513;42.662;23.350;2022-08-01T02:59:46;6.68;;;2.60;;
16792;SDS011;8513;42.662;23.350;2022-08-01T03:02:14;3.38;;;2.70;;
16792;SDS011;8513;42.662;23.350;2022-08-01T03:04:42;3.30;;;2.45;;
16792;SDS011;8513;42.662;23.350;2022-08-01T03:07:09;4.78;;;2.63;;
16792;SDS011;8513;42.662;23.350;2022-08-01T03:09:38;6.32;;;2.67;;
16792;SDS011;8513;42.662;23.350;2022-08-01T03:12:09;2.63;;;2.42;;
16792;SDS011;8513;42.662;23.350;2022-08-01T03:14:39;5.70;;;2.58;;
16792;SDS011;8513;42.662;23.350;2022-08-01T03:17:06;2.95;;;2.13;;
16792;SDS011;8513;42.662;23.350;2022-08-01T03:19:34;3.83;;;2.58;;
16792;SDS011;8513;42.662;23.350;2022-08-01T03:22:02;4.18;;;2.60;;
16792;SDS011;8513;42.662;23.350;2022-08-01T03:24:31;2.78;;;2.58;;
16792;SDS011;8513;42.662;23.350;2022-08-01T03:26:58;3.58;;;2.70;;
16792;SDS011;8513;42.662;23.350;2022-08-01T03:29:24;3.33;;;2.78;;
16792;SDS011;8513;42.662;23.350;2022-08-01T03:31:52;5.20;;;2.95;;
16792;SDS011;8513;42.662;23.350;2022-08-01T03:34:18;4.57;;;2.65;;
16792;SDS011;8513;42.662;23.350;2022-08-01T03:36:49;4.40;;;3.15;;
16792;SDS011;8513;42.662;23.350;2022-08-01T03:45:30;3.30;;;3.03;;
16792;SDS011;8513;42.662;23.350;2022-08-01T03:48:05;3.28;;;2.97;;
16792;SDS011;8513;42.662;23.350;2022-08-01T03:50:36;6.65;;;3.40;;
16792;SDS011;8513;42.662;23.350;2022-08-01T03:53:06;3.78;;;3.33;;
16792;SDS011;8513;42.662;23.350;2022-08-01T03:55:35;6.20;;;3.10;;
16792;SDS011;8513;42.662;23.350;2022-08-01T03:58:03;5.40;;;3.15;;
16792;SDS011;8513;42.662;23.350;2022-08-01T04:00:30;10.27;;;3.78;;
16792;SDS011;8513;42.662;23.350;2022-08-01T04:02:56;5.30;;;3.45;;
16792;SDS011;8513;42.662;23.350;2022-08-01T04:05:22;4.40;;;3.67;;
16792;SDS011;8513;42.662;23.350;2022-08-01T04:07:48;4.07;;;3.50;;
16792;SDS011;8513;42.662;23.350;2022-08-01T04:10:21;4.35;;;3.95;;
16792;SDS011;8513;42.662;23.350;2022-08-01T04:12:50;7.63;;;3.97;;
16792;SDS011;8513;42.662;23.350;2022-08-01T04:15:16;5.72;;;3.50;;
16792;SDS011;8513;42.662;23.350;2022-08-01T04:17:41;4.10;;;3.70;;
16792;SDS011;8513;42.662;23.350;2022-08-01T04:20:07;5.93;;;4.05;;
16792;SDS011;8513;42.662;23.350;2022-08-01T04:22:34;4.50;;;4.10;;
16792;SDS011;8513;42.662;23.350;2022-08-01T04:25:01;4.95;;;3.35;;
16792;SDS011;8513;42.662;23.350;2022-08-01T04:27:30;4.38;;;3.92;;
16792;SDS011;8513;42.662;23.350;2022-08-01T04:29:58;5.18;;;3.63;;
16792;SDS011;8513;42.662;23.350;2022-08-01T04:32:25;5.00;;;3.85;;
16792;SDS011;8513;42.662;23.350;2022-08-01T04:34:55;4.85;;;3.95;;
16792;SDS011;8513;42.662;23.350;2022-08-01T04:37:25;4.72;;;3.60;;
16792;SDS011;8513;42.662;23.350;2022-08-01T04:39:52;6.05;;;3.60;;
16792;SDS011;8513;42.662;23.350;2022-08-01T04:42:19;4.80;;;4.07;;
16792;SDS011;8513;42.662;23.350;2022-08-01T04:44:44;4.35;;;3.95;;
16792;SDS011;8513;42.662;23.350;2022-08-01T04:47:10;4.90;;;4.32;;
16792;SDS011;8513;42.662;23.350;2022-08-01T04:49:36;4.00;;;3.63;;
16792;SDS011;8513;42.662;23.350;2022-08-01T04:52:03;5.97;;;3.53;;
16792;SDS011;8513;42.662;23.350;2022-08-01T04:54:29;3.60;;;3.22;;
16792;SDS011;8513;42.662;23.350;2022-08-01T04:56:58;4.25;;;3.20;;
16792;SDS011;8513;42.662;23.350;2022-08-01T04:59:27;4.57;;;3.40;;
16792;SDS011;8513;42.662;23.350;2022-08-01T05:02:04;4.80;;;3.47;;
16792;SDS011;8513;42.662;23.350;2022-08-01T05:04:31;3.88;;;3.47;;
16792;SDS011;8513;42.662;23.350;2022-08-01T05:06:56;4.68;;;4.00;;
16792;SDS011;8513;42.662;23.350;2022-08-01T05:09:22;5.07;;;3.90;;
16792;SDS011;8513;42.662;23.350;2022-08-01T05:11:47;4.43;;;4.03;;
16792;SDS011;8513;42.662;23.350;2022-08-01T05:14:13;6.45;;;5.00;;
16792;SDS011;8513;42.662;23.350;2022-08-01T05:16:38;5.82;;;4.72;;
16792;SDS011;8513;42.662;23.350;2022-08-01T05:19:04;6.05;;;4.72;;
16792;SDS011;8513;42.662;23.350;2022-08-01T05:21:29;7.00;;;4.68;;
16792;SDS011;8513;42.662;23.350;2022-08-01T05:23:55;6.57;;;4.60;;
16792;SDS011;8513;42.662;23.350;2022-08-01T05:26:20;7.15;;;4.55;;
16792;SDS011;8513;42.662;23.350;2022-08-01T05:28:45;7.95;;;4.50;;
16792;SDS011;8513;42.662;23.350;2022-08-01T05:31:11;7.35;;;4.20;;
16792;SDS011;8513;42.662;23.350;2022-08-01T05:33:36;8.75;;;4.40;;
16792;SDS011;8513;42.662;23.350;2022-08-01T05:36:02;5.03;;;4.00;;
16792;SDS011;8513;42.662;23.350;2022-08-01T05:38:27;6.30;;;3.90;;
16792;SDS011;8513;42.662;23.350;2022-08-01T05:40:53;7.45;;;3.95;;
16792;SDS011;8513;42.662;23.350;2022-08-01T05:43:18;7.60;;;4.50;;
16792;SDS011;8513;42.662;23.350;2022-08-01T05:45:44;5.85;;;4.05;;
16792;SDS011;8513;42.662;23.350;2022-08-01T05:48:10;9.20;;;4.68;;
16792;SDS011;8513;42.662;23.350;2022-08-01T05:50:36;7.57;;;4.20;;
16792;SDS011;8513;42.662;23.350;2022-08-01T05:53:02;5.15;;;3.65;;
16792;SDS011;8513;42.662;23.350;2022-08-01T05:55:27;5.53;;;3.53;;
16792;SDS011;8513;42.662;23.350;2022-08-01T05:57:53;4.80;;;3.60;;
16792;SDS011;8513;42.662;23.350;2022-08-01T06:00:18;8.07;;;3.83;;
16792;SDS011;8513;42.662;23.350;2022-08-01T06:02:44;9.57;;;3.78;;
16792;SDS011;8513;42.662;23.350;2022-08-01T06:05:09;4.85;;;3.78;;
16792;SDS011;8513;42.662;23.350;2022-08-01T06:07:36;4.32;;;3.28;;
16792;SDS011;8513;42.662;23.350;2022-08-01T06:10:01;3.58;;;2.95;;
16792;SDS011;8513;42.662;23.350;2022-08-01T06:12:27;5.25;;;2.75;;
16792;SDS011;8513;42.662;23.350;2022-08-01T06:14:52;5.07;;;2.22;;
16792;SDS011;8513;42.662;23.350;2022-08-01T06:17:18;2.75;;;2.55;;
16792;SDS011;8513;42.662;23.350;2022-08-01T06:19:43;2.72;;;2.10;;
16792;SDS011;8513;42.662;23.350;2022-08-01T06:22:09;2.38;;;2.13;;
16792;SDS011;8513;42.662;23.350;2022-08-01T06:24:34;3.03;;;1.77;;
16792;SDS011;8513;42.662;23.350;2022-08-01T06:27:00;3.03;;;2.20;;
16792;SDS011;8513;42.662;23.350;2022-08-01T06:29:26;3.33;;;2.08;;
16792;SDS011;8513;42.662;23.350;2022-08-01T06:31:52;3.15;;;2.10;;
16792;SDS011;8513;42.662;23.350;2022-08-01T06:34:17;2.38;;;2.15;;
16792;SDS011;8513;42.662;23.350;2022-08-01T06:36:42;3.70;;;2.40;;
16792;SDS011;8513;42.662;23.350;2022-08-01T06:39:08;4.50;;;2.38;;
16792;SDS011;8513;42.662;23.350;2022-08-01T06:41:33;3.30;;;2.33;;
16792;SDS011;8513;42.662;23.350;2022-08-01T06:43:59;6.57;;;2.42;;
16792;SDS011;8513;42.662;23.350;2022-08-01T06:46:27;2.65;;;2.45;;
16792;SDS011;8513;42.662;23.350;2022-08-01T06:48:52;3.78;;;2.17;;
16792;SDS011;8513;42.662;23.350;2022-08-01T06:51:18;2.30;;;2.10;;
16792;SDS011;8513;42.662;23.350;2022-08-01T06:53:45;2.92;;;2.40;;
16792;SDS011;8513;42.662;23.350;2022-08-01T06:56:10;4.32;;;2.65;;
16792;SDS011;8513;42.662;23.350;2022-08-01T06:58:36;2.95;;;2.45;;
16792;SDS011;8513;42.662;23.350;2022-08-01T07:01:02;2.63;;;2.42;;
16792;SDS011;8513;42.662;23.350;2022-08-01T07:03:31;3.72;;;2.20;;
16792;SDS011;8513;42.662;23.350;2022-08-01T07:05:57;2.97;;;2.08;;
16792;SDS011;8513;42.662;23.350;2022-08-01T07:08:22;5.22;;;2.22;;
16792;SDS011;8513;42.662;23.350;2022-08-01T07:10:48;3.47;;;2.42;;
16792;SDS011;8513;42.662;23.350;2022-08-01T07:13:13;4.03;;;2.60;;
16792;SDS011;8513;42.662;23.350;2022-08-01T07:15:41;2.70;;;2.28;;
16792;SDS011;8513;42.662;23.350;2022-08-01T07:18:06;3.28;;;2.40;;
16792;SDS011;8513;42.662;23.350;2022-08-01T07:20:32;5.20;;;2.40;;
16792;SDS011;8513;42.662;23.350;2022-08-01T07:22:57;3.28;;;2.45;;
16792;SDS011;8513;42.662;23.350;2022-08-01T07:25:22;3.10;;;2.60;;
16792;SDS011;8513;42.662;23.350;2022-08-01T07:27:48;4.30;;;2.30;;
16792;SDS011;8513;42.662;23.350;2022-08-01T07:30:14;4.07;;;2.78;;
16792;SDS011;8513;42.662;23.350;2022-08-01T07:32:39;5.93;;;2.58;;
16792;SDS011;8513;42.662;23.350;2022-08-01T07:35:05;3.58;;;2.30;;
16792;SDS011;8513;42.662;23.350;2022-08-01T07:37:31;2.85;;;2.58;;
16792;SDS011;8513;42.662;23.350;2022-08-01T07:39:56;5.13;;;2.90;;
16792;SDS011;8513;42.662;23.350;2022-08-01T07:42:22;4.25;;;3.10;;
16792;SDS011;8513;42.662;23.350;2022-08-01T07:44:47;3.25;;;2.38;;
16792;SDS011;8513;42.662;23.350;2022-08-01T07:47:12;4.20;;;2.47;;
16792;SDS011;8513;42.662;23.350;2022-08-01T07:49:38;2.55;;;2.30;;
16792;SDS011;8513;42.662;23.350;2022-08-01T07:52:04;3.08;;;2.83;;
16792;SDS011;8513;42.662;23.350;2022-08-01T07:54:30;3.35;;;2.30;;
16792;SDS011;8513;42.662;23.350;2022-08-01T07:56:56;2.90;;;2.20;;
16792;SDS011;8513;42.662;23.350;2022-08-01T07:59:22;2.33;;;2.03;;
16792;SDS011;8513;42.662;23.350;2022-08-01T08:01:49;2.90;;;2.20;;
16792;SDS011;8513;42.662;23.350;2022-08-01T08:04:16;5.15;;;2.67;;
16792;SDS011;8513;42.662;23.350;2022-08-01T08:06:41;4.18;;;2.60;;
16792;SDS011;8513;42.662;23.350;2022-08-01T08:09:08;3.60;;;2.55;;
16792;SDS011;8513;42.662;23.350;2022-08-01T08:11:33;3.65;;;2.80;;
16792;SDS011;8513;42.662;23.350;2022-08-01T08:13:59;4.90;;;2.40;;
16792;SDS011;8513;42.662;23.350;2022-08-01T08:16:24;3.28;;;2.47;;
16792;SDS011;8513;42.662;23.350;2022-08-01T08:18:49;3.78;;;2.50;;
16792;SDS011;8513;42.662;23.350;2022-08-01T08:21:15;2.30;;;2.10;;
16792;SDS011;8513;42.662;23.350;2022-08-01T08:23:40;3.10;;;2.80;;
16792;SDS011;8513;42.662;23.350;2022-08-01T08:26:24;3.88;;;2.13;;
16792;SDS011;8513;42.662;23.350;2022-08-01T08:28:50;3.35;;;2.60;;
16792;SDS011;8513;42.662;23.350;2022-08-01T08:31:15;2.50;;;1.90;;
16792;SDS011;8513;42.662;23.350;2022-08-01T08:33:41;4.25;;;2.50;;
16792;SDS011;8513;42.662;23.350;2022-08-01T08:36:06;3.25;;;2.95;;
16792;SDS011;8513;42.662;23.350;2022-08-01T08:38:32;3.75;;;2.50;;
16792;SDS011;8513;42.662;23.350;2022-08-01T08:40:57;2.75;;;2.20;;
16792;SDS011;8513;42.662;23.350;2022-08-01T08:43:24;4.32;;;2.40;;
16792;SDS011;8513;42.662;23.350;2022-08-01T08:45:50;2.35;;;1.98;;
16792;SDS011;8513;42.662;23.350;2022-08-01T08:48:17;4.20;;;2.30;;
16792;SDS011;8513;42.662;23.350;2022-08-01T08:50:43;4.25;;;2.15;;
16792;SDS011;8513;42.662;23.350;2022-08-01T08:53:10;5.18;;;2.08;;
16792;SDS011;8513;42.662;23.350;2022-08-01T08:55:38;2.30;;;2.10;;
16792;SDS011;8513;42.662;23.350;2022-08-01T08:58:08;4.28;;;2.42;;
16792;SDS011;8513;42.662;23.350;2022-08-01T09:00:41;4.68;;;2.28;;
16792;SDS011;8513;42.662;23.350;2022-08-01T09:03:06;2.20;;;2.10;;
16792;SDS011;8513;42.662;23.350;2022-08-01T09:05:32;2.20;;;2.00;;
16792;SDS011;8513;42.662;23.350;2022-08-01T09:07:58;3.53;;;2.00;;
16792;SDS011;8513;42.662;23.350;2022-08-01T09:10:23;2.53;;;2.33;;
16792;SDS011;8513;42.662;23.350;2022-08-01T09:15:50;2.53;;;2.30;;
16792;SDS011;8513;42.662;23.350;2022-08-01T09:21:12;4.35;;;2.08;;
16792;SDS011;8513;42.662;23.350;2022-08-01T09:26:19;6.85;;;3.08;;
16792;SDS011;8513;42.662;23.350;2022-08-01T09:28:46;5.15;;;2.50;;
16792;SDS011;8513;42.662;23.350;2022-08-01T09:31:13;2.97;;;2.22;;
16792;SDS011;8513;42.662;23.350;2022-08-01T09:33:50;2.83;;;2.20;;
16792;SDS011;8513;42.662;23.350;2022-08-01T09:36:21;2.35;;;1.98;;
16792;SDS011;8513;42.662;23.350;2022-08-01T09:38:49;2.30;;;2.10;;
16792;SDS011;8513;42.662;23.350;2022-08-01T09:41:17;2.20;;;2.10;;
16792;SDS011;8513;42.662;23.350;2022-08-01T09:43:53;2.40;;;2.20;;
16792;SDS011;8513;42.662;23.350;2022-08-01T09:46:18;2.75;;;2.20;;
16792;SDS011;8513;42.662;23.350;2022-08-01T09:48:56;5.00;;;2.08;;
16792;SDS011;8513;42.662;23.350;2022-08-01T09:51:33;3.50;;;2.00;;
16792;SDS011;8513;42.662;23.350;2022-08-01T09:54:01;7.13;;;2.30;;
16792;SDS011;8513;42.662;23.350;2022-08-01T09:56:39;4.25;;;2.10;;
16792;SDS011;8513;42.662;23.350;2022-08-01T09:59:10;3.40;;;2.50;;
16792;SDS011;8513;42.662;23.350;2022-08-01T10:01:47;3.03;;;2.40;;
16792;SDS011;8513;42.662;23.350;2022-08-01T10:04:14;3.28;;;2.47;;
16792;SDS011;8513;42.662;23.350;2022-08-01T10:06:42;4.40;;;2.13;;
16792;SDS011;8513;42.662;23.350;2022-08-01T10:09:10;2.50;;;2.30;;
16792;SDS011;8513;42.662;23.350;2022-08-01T10:11:38;2.40;;;2.20;;
16792;SDS011;8513;42.662;23.350;2022-08-01T10:14:06;2.95;;;2.40;;
16792;SDS011;8513;42.662;23.350;2022-08-01T10:16:33;3.15;;;2.38;;
16792;SDS011;8513;42.662;23.350;2022-08-01T10:19:05;2.45;;;2.30;;
16792;SDS011;8513;42.662;23.350;2022-08-01T10:21:32;3.95;;;2.13;;
16792;SDS011;8513;42.662;23.350;2022-08-01T10:23:59;2.92;;;2.25;;
16792;SDS011;8513;42.662;23.350;2022-08-01T10:26:27;3.13;;;2.05;;
16792;SDS011;8513;42.662;23.350;2022-08-01T10:28:57;2.30;;;2.10;;
16792;SDS011;8513;42.662;23.350;2022-08-01T10:31:22;2.88;;;2.13;;
16792;SDS011;8513;42.662;23.350;2022-08-01T10:33:48;3.28;;;2.10;;
16792;SDS011;8513;42.662;23.350;2022-08-01T10:36:17;3.03;;;2.10;;
16792;SDS011;8513;42.662;23.350;2022-08-01T10:38:45;2.55;;;2.33;;
16792;SDS011;8513;42.662;23.350;2022-08-01T10:41:11;2.38;;;2.03;;
16792;SDS011;8513;42.662;23.350;2022-08-01T10:43:40;3.03;;;2.63;;
16792;SDS011;8513;42.662;23.350;2022-08-01T10:46:05;2.40;;;2.20;;
16792;SDS011;8513;42.662;23.350;2022-08-01T10:48:39;2.53;;;2.33;;
16792;SDS011;8513;42.662;23.350;2022-08-01T10:51:11;2.28;;;2.05;;
16792;SDS011;8513;42.662;23.350;2022-08-01T10:53:37;2.92;;;2.20;;
16792;SDS011;8513;42.662;23.350;2022-08-01T10:56:11;3.10;;;2.70;;
16792;SDS011;8513;42.662;23.350;2022-08-01T10:58:38;2.22;;;2.08;;
16792;SDS011;8513;42.662;23.350;2022-08-01T11:01:13;2.50;;;1.98;;
16792;SDS011;8513;42.662;23.350;2022-08-01T11:04:08;3.33;;;2.33;;
16792;SDS011;8513;42.662;23.350;2022-08-01T11:12:12;2.40;;;2.20;;
16792;SDS011;8513;42.662;23.350;2022-08-01T11:17:35;4.07;;;2.35;;
16792;SDS011;8513;42.662;23.350;2022-08-01T11:30:43;3.03;;;2.03;;
16792;SDS011;8513;42.662;23.350;2022-08-01T11:33:11;3.85;;;1.98;;
16792;SDS011;8513;42.662;23.350;2022-08-01T11:35:38;4.95;;;1.90;;
16792;SDS011;8513;42.662;23.350;2022-08-01T11:38:35;3.67;;;1.95;;
16792;SDS011;8513;42.662;23.350;2022-08-01T11:41:10;2.42;;;2.22;;
16792;SDS011;8513;42.662;23.350;2022-08-01T11:49:25;2.30;;;2.00;;
16792;SDS011;8513;42.662;23.350;2022-08-01T11:54:31;3.45;;;2.00;;
16792;SDS011;8513;42.662;23.350;2022-08-01T11:57:01;2.30;;;2.10;;
16792;SDS011;8513;42.662;23.350;2022-08-01T11:59:35;2.97;;;2.13;;
16792;SDS011;8513;42.662;23.350;2022-08-01T12:02:14;2.20;;;2.10;;
16792;SDS011;8513;42.662;23.350;2022-08-01T12:04:48;4.93;;;2.22;;
16792;SDS011;8513;42.662;23.350;2022-08-01T12:07:15;2.60;;;2.17;;
16792;SDS011;8513;42.662;23.350;2022-08-01T12:09:41;2.22;;;2.03;;
16792;SDS011;8513;42.662;23.350;2022-08-01T12:12:08;3.88;;;1.92;;
16792;SDS011;8513;42.662;23.350;2022-08-01T12:14:34;3.95;;;2.65;;
16792;SDS011;8513;42.662;23.350;2022-08-01T12:17:00;4.93;;;2.13;;
16792;SDS011;8513;42.662;23.350;2022-08-01T12:19:25;2.53;;;2.13;;
16792;SDS011;8513;42.662;23.350;2022-08-01T12:22:13;3.40;;;2.30;;
16792;SDS011;8513;42.662;23.350;2022-08-01T12:24:40;2.40;;;2.20;;
16792;SDS011;8513;42.662;23.350;2022-08-01T12:27:08;2.45;;;2.30;;
16792;SDS011;8513;42.662;23.350;2022-08-01T12:29:36;3.28;;;2.20;;
16792;SDS011;8513;42.662;23.350;2022-08-01T12:32:04;2.67;;;2.47;;
16792;SDS011;8513;42.662;23.350;2022-08-01T12:34:45;3.92;;;2.05;;
16792;SDS011;8513;42.662;23.350;2022-08-01T12:37:11;2.25;;;2.15;;
16792;SDS011;8513;42.662;23.350;2022-08-01T12:39:36;2.80;;;2.60;;
16792;SDS011;8513;42.662;23.350;2022-08-01T12:42:06;6.25;;;2.60;;
16792;SDS011;8513;42.662;23.350;2022-08-01T12:44:32;2.60;;;2.40;;
16792;SDS011;8513;42.662;23.350;2022-08-01T12:46:59;2.10;;;1.90;;
16792;SDS011;8513;42.662;23.350;2022-08-01T12:49:26;2.70;;;2.40;;
16792;SDS011;8513;42.662;23.350;2022-08-01T12:51:52;2.40;;;2.20;;
16792;SDS011;8513;42.662;23.350;2022-08-01T12:54:19;3.30;;;2.40;;
16792;SDS011;8513;42.662;23.350;2022-08-01T12:56:45;4.60;;;2.40;;
16792;SDS011;8513;42.662;23.350;2022-08-01T12:59:27;2.50;;;2.30;;
16792;SDS011;8513;42.662;23.350;2022-08-01T13:01:54;5.22;;;2.80;;
16792;SDS011;8513;42.662;23.350;2022-08-01T13:04:20;2.65;;;2.45;;
16792;SDS011;8513;42.662;23.350;2022-08-01T13:06:47;2.10;;;2.00;;
16792;SDS011;8513;42.662;23.350;2022-08-01T13:09:17;2.33;;;2.10;;
16792;SDS011;8513;42.662;23.350;2022-08-01T13:11:43;2.08;;;1.88;;
16792;SDS011;8513;42.662;23.350;2022-08-01T13:14:09;3.70;;;2.47;;
16792;SDS011;8513;42.662;23.350;2022-08-01T13:16:47;3.10;;;2.30;;
16792;SDS011;8513;42.662;23.350;2022-08-01T13:19:12;2.42;;;2.10;;
16792;SDS011;8513;42.662;23.350;2022-08-01T13:21:38;2.88;;;2.25;;
16792;SDS011;8513;42.662;23.350;2022-08-01T13:24:11;3.17;;;2.10;;
16792;SDS011;8513;42.662;23.350;2022-08-01T13:29:10;2.63;;;2.05;;
16792;SDS011;8513;42.662;23.350;2022-08-01T13:31:37;5.25;;;2.50;;
16792;SDS011;8513;42.662;23.350;2022-08-01T13:34:04;2.30;;;2.15;;
16792;SDS011;8513;42.662;23.350;2022-08-01T13:36:30;2.25;;;2.15;;
16792;SDS011;8513;42.662;23.350;2022-08-01T13:38:56;2.33;;;2.13;;
16792;SDS011;8513;42.662;23.350;2022-08-01T13:41:41;2.30;;;2.10;;
16792;SDS011;8513;42.662;23.350;2022-08-01T13:44:07;2.85;;;2.22;;
16792;SDS011;8513;42.662;23.350;2022-08-01T13:46:34;2.58;;;2.38;;
16792;SDS011;8513;42.662;23.350;2022-08-01T13:49:00;3.67;;;2.20;;
16792;SDS011;8513;42.662;23.350;2022-08-01T13:51:26;2.47;;;2.30;;
16792;SDS011;8513;42.662;23.350;2022-08-01T13:53:52;2.25;;;1.90;;
16792;SDS011;8513;42.662;23.350;2022-08-01T13:56:17;3.97;;;1.90;;
16792;SDS011;8513;42.662;23.350;2022-08-01T13:58:43;2.67;;;2.38;;
16792;SDS011;8513;42.662;23.350;2022-08-01T14:01:09;2.45;;;2.25;;
16792;SDS011;8513;42.662;23.350;2022-08-01T14:03:34;2.33;;;2.10;;
16792;SDS011;8513;42.662;23.350;2022-08-01T14:06:00;2.00;;;1.90;;
16792;SDS011;8513;42.662;23.350;2022-08-01T14:08:26;2.28;;;2.00;;
16792;SDS011;8513;42.662;23.350;2022-08-01T14:10:52;2.70;;;2.10;;
16792;SDS011;8513;42.662;23.350;2022-08-01T14:13:18;2.20;;;2.00;;
16792;SDS011;8513;42.662;23.350;2022-08-01T14:15:44;3.10;;;1.90;;
16792;SDS011;8513;42.662;23.350;2022-08-01T14:18:10;3.50;;;2.00;;
16792;SDS011;8513;42.662;23.350;2022-08-01T14:20:36;2.45;;;1.92;;
16792;SDS011;8513;42.662;23.350;2022-08-01T14:23:02;2.58;;;1.75;;
16792;SDS011;8513;42.662;23.350;2022-08-01T14:25:28;2.65;;;2.33;;
16792;SDS011;8513;42.662;23.350;2022-08-01T14:27:53;2.22;;;2.10;;
16792;SDS011;8513;42.662;23.350;2022-08-01T14:30:19;2.30;;;1.95;;
16792;SDS011;8513;42.662;23.350;2022-08-01T14:32:45;3.70;;;2.13;;
16792;SDS011;8513;42.662;23.350;2022-08-01T14:35:10;2.72;;;1.88;;
16792;SDS011;8513;42.662;23.350;2022-08-01T14:37:36;2.72;;;2.00;;
16792;SDS011;8513;42.662;23.350;2022-08-01T14:40:02;1.90;;;1.80;;
16792;SDS011;8513;42.662;23.350;2022-08-01T14:42:30;2.10;;;1.90;;
16792;SDS011;8513;42.662;23.350;2022-08-01T14:44:56;1.80;;;1.70;;
16792;SDS011;8513;42.662;23.350;2022-08-01T14:47:22;1.88;;;1.77;;
16792;SDS011;8513;42.662;23.350;2022-08-01T14:49:48;2.28;;;1.88;;
16792;SDS011;8513;42.662;23.350;2022-08-01T14:52:14;2.53;;;1.80;;
16792;SDS011;8513;42.662;23.350;2022-08-01T14:54:39;2.28;;;1.85;;
16792;SDS011;8513;42.662;23.350;2022-08-01T14:57:05;2.33;;;1.83;;
16792;SDS011;8513;42.662;23.350;2022-08-01T14:59:30;1.90;;;1.63;;
16792;SDS011;8513;42.662;23.350;2022-08-01T15:01:56;3.35;;;2.22;;
16792;SDS011;8513;42.662;23.350;2022-08-01T15:04:21;2.75;;;2.15;;
16792;SDS011;8513;42.662;23.350;2022-08-01T15:06:47;3.67;;;2.10;;
16792;SDS011;8513;42.662;23.350;2022-08-01T15:09:13;2.00;;;1.90;;
16792;SDS011;8513;42.662;23.350;2022-08-01T15:11:38;1.77;;;1.67;;
16792;SDS011;8513;42.662;23.350;2022-08-01T15:14:03;2.80;;;1.75;;
16792;SDS011;8513;42.662;23.350;2022-08-01T15:16:47;2.38;;;1.65;;
16792;SDS011;8513;42.662;23.350;2022-08-01T15:19:13;1.67;;;1.58;;
16792;SDS011;8513;42.662;23.350;2022-08-01T15:21:39;4.25;;;1.85;;
16792;SDS011;8513;42.662;23.350;2022-08-01T15:24:05;1.42;;;1.33;;
16792;SDS011;8513;42.662;23.350;2022-08-01T15:26:30;2.38;;;1.77;;
16792;SDS011;8513;42.662;23.350;2022-08-01T15:28:56;2.47;;;1.73;;
16792;SDS011;8513;42.662;23.350;2022-08-01T15:31:21;1.75;;;1.65;;
16792;SDS011;8513;42.662;23.350;2022-08-01T15:33:47;3.95;;;1.90;;
16792;SDS011;8513;42.662;23.350;2022-08-01T15:36:12;2.25;;;1.50;;
16792;SDS011;8513;42.662;23.350;2022-08-01T15:38:37;3.05;;;1.60;;
16792;SDS011;8513;42.662;23.350;2022-08-01T15:41:03;1.60;;;1.50;;
16792;SDS011;8513;42.662;23.350;2022-08-01T15:43:28;2.00;;;1.80;;
16792;SDS011;8513;42.662;23.350;2022-08-01T15:45:54;1.70;;;1.60;;